Time;durP1;ratioP1;P1;durP2;ratioP2;P2;SDS_P1;SDS_P2;PMS_P1;PMS_P2;Temp;Humidity;BMP_temperature;BMP_pressure;BME280_temperature;BME280_humidity;BME280_pressure;Samples;Min_cycle;Max_cycle;Signal;HPM_P1;HPM_P2
2022/11/23 00:02:24;;;;;;;19.55;9.52;;;;;;;;;;10527955;28;20149;-74
2022/11/23 00:07:25;;;;;;;19.77;11.30;;;;;;;;;;10529096;28;20056;-74
2022/11/23 00:12:25;;;;;;;19.73;10.20;;;;;;;;;;10529210;28;20539;-73
2022/11/23 00:17:25;;;;;;;21.48;10.73;;;;;;;;;;10527629;28;20518;-74
2022/11/23 00:22:25;;;;;;;23.92;12.25;;;;;;;;;;10527523;28;20391;-74
2022/11/23 00:27:27;;;;;;;21.77;11.35;;;;;;;;;;10527502;28;20023;-74
2022/11/23 00:32:30;;;;;;;19.05;10.65;;;;;;;;;;10527560;28;20047;-74
2022/11/23 00:37:30;;;;;;;18.02;10.70;;;;;;;;;;10528248;28;20038;-73
2022/11/23 00:42:30;;;;;;;17.58;9.90;;;;;;;;;;10530786;28;20022;-75
2022/11/23 00:47:31;;;;;;;20.00;11.32;;;;;;;;;;10534851;28;20028;-73
2022/11/23 00:52:31;;;;;;;21.00;12.05;;;;;;;;;;10536070;28;20497;-73
2022/11/23 00:57:32;;;;;;;24.77;11.05;;;;;;;;;;10538513;28;20036;-73
2022/11/23 01:02:35;;;;;;;20.33;10.50;;;;;;;;;;10534140;28;20487;-73
2022/11/23 01:07:35;;;;;;;16.58;9.30;;;;;;;;;;10533727;28;20275;-72
2022/11/23 01:12:36;;;;;;;20.35;9.38;;;;;;;;;;10535388;28;20020;-74
2022/11/23 01:17:36;;;;;;;15.82;8.93;;;;;;;;;;10560828;28;20012;-73
2022/11/23 01:22:36;;;;;;;16.75;8.93;;;;;;;;;;10557712;28;20499;-74
2022/11/23 01:27:37;;;;;;;17.75;10.02;;;;;;;;;;10552741;28;20024;-72
2022/11/23 01:32:37;;;;;;;17.58;9.30;;;;;;;;;;10534125;28;20020;-73
2022/11/23 01:37:37;;;;;;;20.30;10.88;;;;;;;;;;10522259;28;20053;-72
2022/11/23 01:43:13;;;;;;;18.20;9.30;;;;;;;;;;10531949;28;20024;-72
2022/11/23 01:48:18;;;;;;;17.67;10.13;;;;;;;;;;10464211;28;20043;-73
2022/11/23 01:53:19;;;;;;;18.55;10.30;;;;;;;;;;10525434;28;20051;-73
2022/11/23 01:58:21;;;;;;;16.20;9.20;;;;;;;;;;10514919;28;20027;-73
2022/11/23 02:03:21;;;;;;;15.98;9.57;;;;;;;;;;10514926;28;20016;-72
2022/11/23 02:08:22;;;;;;;18.60;9.53;;;;;;;;;;10532812;28;20471;-72
2022/11/23 02:13:23;;;;;;;17.63;8.88;;;;;;;;;;10514527;28;20266;-74
2022/11/23 02:18:28;;;;;;;16.17;8.68;;;;;;;;;;10514420;28;20056;-72
2022/11/23 02:23:31;;;;;;;18.48;10.05;;;;;;;;;;10514243;28;20024;-75
2022/11/23 02:28:35;;;;;;;15.90;8.10;;;;;;;;;;10514752;28;20024;-74
2022/11/23 02:33:38;;;;;;;19.48;9.52;;;;;;;;;;10497707;28;20035;-72
2022/11/23 02:38:38;;;;;;;13.50;8.13;;;;;;;;;;10471557;28;20111;-74
2022/11/23 02:43:39;;;;;;;16.13;9.48;;;;;;;;;;10498825;28;20025;-74
2022/11/23 02:48:39;;;;;;;12.65;7.47;;;;;;;;;;10454640;28;20392;-73
2022/11/23 02:53:39;;;;;;;16.90;9.77;;;;;;;;;;10512183;28;20024;-72
2022/11/23 02:58:40;;;;;;;15.82;9.23;;;;;;;;;;10513750;28;20027;-71
2022/11/23 03:03:40;;;;;;;19.80;11.63;;;;;;;;;;10512084;28;20024;-73
2022/11/23 03:08:40;;;;;;;20.40;11.02;;;;;;;;;;10512818;28;20027;-72
2022/11/23 03:13:41;;;;;;;32.80;13.95;;;;;;;;;;10512995;28;20020;-72
2022/11/23 03:18:41;;;;;;;26.80;11.82;;;;;;;;;;10530285;28;20024;-73
2022/11/23 03:23:41;;;;;;;20.05;11.30;;;;;;;;;;10530011;28;20548;-75
2022/11/23 03:28:42;;;;;;;21.75;11.40;;;;;;;;;;10529801;28;20470;-72
2022/11/23 03:33:42;;;;;;;24.40;11.88;;;;;;;;;;10499572;28;20017;-71
2022/11/23 03:38:42;;;;;;;25.42;13.82;;;;;;;;;;10497856;28;20542;-70
2022/11/23 03:43:43;;;;;;;26.13;13.10;;;;;;;;;;10495102;28;20503;-74
2022/11/23 03:48:43;;;;;;;26.20;14.50;;;;;;;;;;10499476;28;20207;-71
2022/11/23 03:53:43;;;;;;;33.53;15.55;;;;;;;;;;10511875;28;20028;-74
2022/11/23 03:58:43;;;;;;;25.27;14.30;;;;;;;;;;10519292;28;20074;-75
2022/11/23 04:03:44;;;;;;;29.50;14.10;;;;;;;;;;10527919;28;20044;-73
2022/11/23 04:08:44;;;;;;;21.98;12.75;;;;;;;;;;10529116;28;20020;-73
2022/11/23 04:13:44;;;;;;;24.45;14.02;;;;;;;;;;10483453;28;20103;-73
2022/11/23 04:18:45;;;;;;;24.13;14.07;;;;;;;;;;10492304;28;20035;-72
2022/11/23 04:23:45;;;;;;;26.65;14.30;;;;;;;;;;10518281;28;20020;-72
2022/11/23 04:28:45;;;;;;;25.30;13.03;;;;;;;;;;10512361;28;20402;-73
2022/11/23 04:33:46;;;;;;;27.02;14.77;;;;;;;;;;10525434;28;20036;-72
2022/11/23 04:38:46;;;;;;;28.77;13.48;;;;;;;;;;10520238;28;20495;-72
2022/11/23 04:43:46;;;;;;;26.33;14.50;;;;;;;;;;10528203;28;20406;-73
2022/11/23 04:48:48;;;;;;;28.48;15.27;;;;;;;;;;10516080;28;20040;-72
2022/11/23 04:53:48;;;;;;;30.60;16.70;;;;;;;;;;10519358;28;20034;-72
2022/11/23 04:58:48;;;;;;;28.42;15.35;;;;;;;;;;10515999;28;20024;-73
2022/11/23 05:03:49;;;;;;;32.40;16.50;;;;;;;;;;10532733;28;20032;-73
2022/11/23 05:08:50;;;;;;;34.78;16.40;;;;;;;;;;10511944;28;20469;-74
2022/11/23 05:13:50;;;;;;;29.00;17.37;;;;;;;;;;10506868;28;20529;-72
2022/11/23 05:18:50;;;;;;;30.70;16.85;;;;;;;;;;10530654;28;20274;-72
2022/11/23 05:23:50;;;;;;;27.83;16.80;;;;;;;;;;10513657;28;20020;-73
2022/11/23 05:28:51;;;;;;;32.75;18.02;;;;;;;;;;10515634;28;20012;-73
2022/11/23 05:33:51;;;;;;;31.23;18.48;;;;;;;;;;10505322;28;20020;-74
2022/11/23 05:38:51;;;;;;;37.33;20.92;;;;;;;;;;10513150;28;20020;-72
2022/11/23 05:43:51;;;;;;;30.90;18.83;;;;;;;;;;10544426;28;20116;-73
2022/11/23 05:48:52;;;;;;;37.65;20.58;;;;;;;;;;10551615;28;20052;-76
2022/11/23 05:53:52;;;;;;;43.40;20.20;;;;;;;;;;10544676;28;20591;-75
2022/11/23 05:58:53;;;;;;;36.67;20.93;;;;;;;;;;10511082;28;20434;-73
2022/11/23 06:03:54;;;;;;;37.53;20.27;;;;;;;;;;10513098;28;20044;-74
2022/11/23 06:08:54;;;;;;;47.00;22.23;;;;;;;;;;10484651;28;20078;-76
2022/11/23 06:13:54;;;;;;;48.13;26.70;;;;;;;;;;10532266;28;20047;-75
2022/11/23 06:18:57;;;;;;;41.63;22.55;;;;;;;;;;10495826;28;20047;-78
2022/11/23 06:23:58;;;;;;;39.35;21.92;;;;;;;;;;10531528;28;20474;-76
2022/11/23 06:28:59;;;;;;;42.97;23.80;;;;;;;;;;10532044;28;20039;-73
2022/11/23 06:33:59;;;;;;;46.13;23.73;;;;;;;;;;10530621;28;20024;-76
2022/11/23 06:38:59;;;;;;;38.65;21.63;;;;;;;;;;10512785;28;20024;-75
2022/11/23 06:43:59;;;;;;;36.75;20.35;;;;;;;;;;10530582;28;20020;-74
2022/11/23 06:49:00;;;;;;;32.47;18.77;;;;;;;;;;10495872;28;20507;-74
2022/11/23 06:54:00;;;;;;;40.85;22.20;;;;;;;;;;10512973;28;20024;-82
2022/11/23 06:59:00;;;;;;;41.97;23.27;;;;;;;;;;10513544;28;20058;-72
2022/11/23 07:04:03;;;;;;;42.35;23.30;;;;;;;;;;10513629;28;20075;-73
2022/11/23 07:09:03;;;;;;;32.17;17.75;;;;;;;;;;10513497;28;20081;-76
2022/11/23 07:14:03;;;;;;;32.22;18.63;;;;;;;;;;10523749;28;20036;-73
2022/11/23 07:19:04;;;;;;;26.83;17.45;;;;;;;;;;10513063;28;20031;-78
2022/11/23 07:24:04;;;;;;;34.33;19.17;;;;;;;;;;10530806;28;20027;-74
2022/11/23 07:29:04;;;;;;;24.43;14.87;;;;;;;;;;10514471;28;20453;-73
2022/11/23 07:34:05;;;;;;;25.50;16.40;;;;;;;;;;10512421;28;20059;-78
2022/11/23 07:39:06;;;;;;;24.73;15.20;;;;;;;;;;10495718;28;20106;-75
2022/11/23 07:44:06;;;;;;;28.40;17.30;;;;;;;;;;10530483;28;20020;-75
2022/11/23 07:49:07;;;;;;;28.02;15.85;;;;;;;;;;10511652;28;20032;-74
2022/11/23 07:54:07;;;;;;;33.03;18.03;;;;;;;;;;10538362;28;20517;-73
2022/11/23 07:59:07;;;;;;;27.13;17.30;;;;;;;;;;10544812;28;20035;-73
2022/11/23 08:04:07;;;;;;;31.90;15.75;;;;;;;;;;10547493;28;20487;-74
2022/11/23 08:09:08;;;;;;;25.92;14.30;;;;;;;;;;10540073;28;20406;-75
2022/11/23 08:14:08;;;;;;;27.77;16.42;;;;;;;;;;10524683;28;20032;-71
2022/11/23 08:19:08;;;;;;;28.40;15.88;;;;;;;;;;10520616;28;20244;-71
2022/11/23 08:24:09;;;;;;;27.45;15.98;;;;;;;;;;10519064;28;20111;-75
2022/11/23 08:29:09;;;;;;;22.80;13.13;;;;;;;;;;10519456;28;20035;-74
2022/11/23 08:34:09;;;;;;;35.05;17.77;;;;;;;;;;10519024;28;20028;-74
2022/11/23 08:39:10;;;;;;;25.17;15.45;;;;;;;;;;10518621;28;20028;-76
2022/11/23 08:44:11;;;;;;;23.85;15.63;;;;;;;;;;10501858;28;20161;-75
2022/11/23 08:49:11;;;;;;;25.95;15.13;;;;;;;;;;10518784;28;20040;-73
2022/11/23 08:54:11;;;;;;;24.55;14.60;;;;;;;;;;10518628;28;20106;-75
2022/11/23 08:59:12;;;;;;;33.47;15.20;;;;;;;;;;10520430;28;20593;-74
2022/11/23 09:04:12;;;;;;;28.20;16.50;;;;;;;;;;10534869;28;20032;-76
2022/11/23 09:09:12;;;;;;;22.75;14.52;;;;;;;;;;10517637;28;20024;-74
2022/11/23 09:14:13;;;;;;;22.50;14.00;;;;;;;;;;10537186;28;20032;-73
2022/11/23 09:19:13;;;;;;;27.38;14.93;;;;;;;;;;10535518;28;20419;-75
2022/11/23 09:24:13;;;;;;;25.75;14.05;;;;;;;;;;10517247;28;20577;-74
2022/11/23 09:29:13;;;;;;;22.27;14.57;;;;;;;;;;10517348;28;20032;-74
2022/11/23 09:34:14;;;;;;;27.90;14.18;;;;;;;;;;10535076;28;20085;-74
2022/11/23 09:39:14;;;;;;;33.25;14.02;;;;;;;;;;10534781;28;20027;-74
2022/11/23 09:44:32;;;;;;;31.50;15.13;;;;;;;;;;10535248;28;20070;-75
2022/11/23 09:49:33;;;;;;;;;;;;;;;;;;10534350;28;20064;-73
2022/11/23 09:54:35;;;;;;;26.95;16.33;;;;;;;;;;10518938;28;19950;-78
2022/11/23 09:59:39;;;;;;;24.67;15.27;;;;;;;;;;10516026;28;20072;-75
2022/11/23 10:04:39;;;;;;;26.88;13.10;;;;;;;;;;10522021;28;20095;-74
2022/11/23 10:09:40;;;;;;;15.68;9.10;;;;;;;;;;10515980;28;20024;-74
2022/11/23 10:14:40;;;;;;;21.58;12.45;;;;;;;;;;10532910;28;20055;-77
2022/11/23 10:19:59;;;;;;;18.73;12.40;;;;;;;;;;10515513;28;20477;-82
2022/11/23 10:25:00;;;;;;;23.30;14.73;;;;;;;;;;10513880;28;20475;-75
2022/11/23 10:30:01;;;;;;;26.48;14.77;;;;;;;;;;10514234;28;20024;-75
2022/11/23 10:35:04;;;;;;;14.97;8.83;;;;;;;;;;10514529;28;20491;-74
2022/11/23 10:40:22;;;;;;;12.48;7.85;;;;;;;;;;10532034;28;20059;-75
2022/11/23 10:45:23;;;;;;;22.07;13.80;;;;;;;;;;10474356;28;20184;-75
2022/11/23 10:50:33;;;;;;;31.63;16.20;;;;;;;;;;10498303;28;20492;-74
2022/11/23 10:55:55;;;;;;;29.85;15.63;;;;;;;;;;10525800;28;20050;-79
2022/11/23 11:01:03;;;;;;;29.15;14.10;;;;;;;;;;10549804;28;20087;-72
2022/11/23 11:06:03;;;;;;;17.40;7.80;;;;;;;;;;10474614;28;20037;-75
2022/11/23 11:11:05;;;;;;;19.90;10.63;;;;;;;;;;10503426;28;20471;-77
2022/11/23 11:16:16;;;;;;;16.77;9.20;;;;;;;;;;10513748;28;20073;-76
2022/11/23 11:21:20;;;;;;;10.45;5.57;;;;;;;;;;10524228;28;20024;-74
2022/11/23 11:26:24;;;;;;;10.45;6.85;;;;;;;;;;10514113;28;20035;-74
2022/11/23 11:31:27;;;;;;;8.48;6.03;;;;;;;;;;10470192;28;20030;-74
2022/11/23 11:36:31;;;;;;;13.50;5.57;;;;;;;;;;10476461;28;20020;-74
2022/11/23 11:41:32;;;;;;;19.73;7.03;;;;;;;;;;10517822;28;20031;-75
2022/11/23 11:46:39;;;;;;;9.48;4.90;;;;;;;;;;10510494;28;20024;-73
2022/11/23 11:51:41;;;;;;;10.02;4.15;;;;;;;;;;10512280;28;20048;-78
2022/11/23 11:56:43;;;;;;;8.75;3.88;;;;;;;;;;10511673;28;20420;-75
2022/11/23 12:01:50;;;;;;;4.43;2.47;;;;;;;;;;10511729;28;20040;-74
2022/11/23 12:06:53;;;;;;;5.15;3.28;;;;;;;;;;10512291;28;20077;-74
2022/11/23 12:11:53;;;;;;;7.43;2.53;;;;;;;;;;10511749;28;20032;-74
2022/11/23 12:17:04;;;;;;;5.22;1.95;;;;;;;;;;10499591;28;20023;-76
2022/11/23 12:22:28;;;;;;;7.32;2.05;;;;;;;;;;10493273;28;20047;-80
2022/11/23 12:27:48;;;;;;;6.45;3.72;;;;;;;;;;10495687;28;20032;-78
2022/11/23 12:32:58;;;;;;;3.05;1.40;;;;;;;;;;10469242;28;20074;-75
2022/11/23 12:38:36;;;;;;;1.20;0.75;;;;;;;;;;10497638;28;20016;-77
2022/11/23 12:43:47;;;;;;;3.00;1.08;;;;;;;;;;10301574;28;20114;-77
2022/11/23 12:48:49;;;;;;;1.20;0.85;;;;;;;;;;10460958;28;20039;-74
2022/11/23 12:58:55;;;;;;;3.33;0.65;;;;;;;;;;10575574;28;19962;-75
2022/11/23 13:04:08;;;;;;;2.65;0.73;;;;;;;;;;10560260;28;20027;-79
2022/11/23 13:09:27;;;;;;;2.67;0.57;;;;;;;;;;10560383;28;20016;-76
2022/11/23 13:14:30;;;;;;;1.63;0.80;;;;;;;;;;10576543;28;20019;-76
2022/11/23 13:19:38;;;;;;;4.78;1.65;;;;;;;;;;10559034;28;20024;-78
2022/11/23 13:24:39;;;;;;;1.95;1.27;;;;;;;;;;10558988;28;20025;-79
2022/11/23 13:29:49;;;;;;;6.18;1.20;;;;;;;;;;10541909;28;20022;-75
2022/11/23 13:34:49;;;;;;;3.22;0.90;;;;;;;;;;10552179;28;20024;-78
2022/11/23 13:39:53;;;;;;;2.58;1.00;;;;;;;;;;10570807;28;20115;-75
2022/11/23 13:45:13;;;;;;;4.55;1.20;;;;;;;;;;10557183;28;20081;-76
2022/11/23 13:50:18;;;;;;;3.70;1.20;;;;;;;;;;10556216;28;20016;-75
2022/11/23 13:55:26;;;;;;;4.30;1.85;;;;;;;;;;10582453;27;20070;-74
2022/11/23 14:00:46;;;;;;;3.42;1.17;;;;;;;;;;10542498;27;20036;-75
2022/11/23 14:05:46;;;;;;;1.77;1.23;;;;;;;;;;10595717;27;20027;-74
2022/11/23 14:10:48;;;;;;;7.07;0.90;;;;;;;;;;10618175;27;20011;-74
2022/11/23 14:15:53;;;;;;;5.47;1.30;;;;;;;;;;10595162;27;20409;-75
2022/11/23 14:21:06;;;;;;;9.10;1.92;;;;;;;;;;10581436;27;20023;-73
2022/11/23 14:26:23;;;;;;;3.22;1.77;;;;;;;;;;10605824;27;20025;-75
2022/11/23 14:31:26;;;;;;;1.85;1.00;;;;;;;;;;10598644;27;20490;-74
2022/11/23 14:36:38;;;;;;;5.75;1.95;;;;;;;;;;10585383;27;20012;-74
2022/11/23 14:41:41;;;;;;;4.20;1.10;;;;;;;;;;10589080;27;20023;-74
2022/11/23 14:47:00;;;;;;;1.38;0.95;;;;;;;;;;10621190;27;20015;-76
2022/11/23 14:52:01;;;;;;;5.88;1.38;;;;;;;;;;10607418;27;20587;-76
2022/11/23 14:57:03;;;;;;;2.25;1.42;;;;;;;;;;10623044;27;20437;-82
2022/11/23 15:02:22;;;;;;;12.05;1.33;;;;;;;;;;10595582;27;20045;-75
2022/11/23 15:07:24;;;;;;;5.40;1.55;;;;;;;;;;10573714;27;20042;-79
2022/11/23 15:12:25;;;;;;;2.50;1.40;;;;;;;;;;10548657;27;20089;-78
2022/11/23 15:17:26;;;;;;;9.45;1.73;;;;;;;;;;10571258;27;20031;-74
2022/11/23 15:22:27;;;;;;;7.18;1.90;;;;;;;;;;10546624;27;20505;-77
2022/11/23 15:27:27;;;;;;;7.03;2.20;;;;;;;;;;10545620;27;20114;-75
2022/11/23 15:32:31;;;;;;;8.83;2.87;;;;;;;;;;10577370;27;20117;-78
2022/11/23 15:37:31;;;;;;;5.57;2.50;;;;;;;;;;10562801;27;20458;-79
2022/11/23 15:42:32;;;;;;;5.28;2.30;;;;;;;;;;10550773;28;20084;-74
2022/11/23 15:47:32;;;;;;;4.67;2.70;;;;;;;;;;10565242;28;20016;-76
2022/11/23 15:52:34;;;;;;;8.23;2.53;;;;;;;;;;10527115;28;20454;-77
2022/11/23 15:57:34;;;;;;;20.25;7.53;;;;;;;;;;10560301;28;20051;-75
2022/11/23 16:02:35;;;;;;;18.97;6.87;;;;;;;;;;10520672;28;20136;-76
2022/11/23 16:07:48;;;;;;;23.00;6.88;;;;;;;;;;10542623;28;20265;-74
2022/11/23 16:12:49;;;;;;;13.27;6.32;;;;;;;;;;10549790;28;20036;-79
2022/11/23 16:17:50;;;;;;;11.38;6.30;;;;;;;;;;10542470;28;20177;-76
2022/11/23 16:22:50;;;;;;;20.17;6.60;;;;;;;;;;10545466;28;20035;-73
2022/11/23 16:28:00;;;;;;;16.25;5.30;;;;;;;;;;10554666;28;20102;-74
2022/11/23 16:33:00;;;;;;;16.98;6.47;;;;;;;;;;10540879;28;20070;-75
2022/11/23 16:38:00;;;;;;;16.40;5.65;;;;;;;;;;10582637;28;20031;-73
2022/11/23 16:43:02;;;;;;;19.88;6.10;;;;;;;;;;10580188;28;20027;-73
2022/11/23 16:48:03;;;;;;;13.07;5.70;;;;;;;;;;10583988;28;20029;-72
2022/11/23 16:53:11;;;;;;;22.83;6.20;;;;;;;;;;10563312;28;20028;-75
2022/11/23 16:58:13;;;;;;;16.23;6.70;;;;;;;;;;10603118;27;20150;-74
2022/11/23 17:03:14;;;;;;;21.48;7.25;;;;;;;;;;10589217;27;20031;-73
2022/11/23 17:08:14;;;;;;;13.77;6.82;;;;;;;;;;10583098;27;20453;-75
2022/11/23 17:13:22;;;;;;;19.92;8.40;;;;;;;;;;10581777;27;20670;-71
2022/11/23 17:18:22;;;;;;;23.02;8.20;;;;;;;;;;10584811;27;20035;-74
2022/11/23 17:23:22;;;;;;;30.33;9.00;;;;;;;;;;10583845;27;20035;-73
2022/11/23 17:28:23;;;;;;;22.23;7.70;;;;;;;;;;10597313;27;20072;-76
2022/11/23 17:33:23;;;;;;;14.15;7.53;;;;;;;;;;10606406;27;20084;-74
2022/11/23 17:38:25;;;;;;;13.15;6.28;;;;;;;;;;10593965;27;20561;-73
2022/11/23 17:43:25;;;;;;;10.43;4.72;;;;;;;;;;10606153;27;20053;-73
2022/11/23 17:48:26;;;;;;;11.98;4.53;;;;;;;;;;10592174;27;20405;-74
2022/11/23 17:53:26;;;;;;;16.27;5.85;;;;;;;;;;10593480;27;20038;-75
2022/11/23 17:58:26;;;;;;;14.70;5.57;;;;;;;;;;10580687;27;20044;-73
2022/11/23 18:03:27;;;;;;;14.93;6.00;;;;;;;;;;10583592;27;20114;-75
2022/11/23 18:08:27;;;;;;;13.45;4.50;;;;;;;;;;10587451;27;20088;-76
2022/11/23 18:13:27;;;;;;;13.55;5.65;;;;;;;;;;10585870;27;20029;-74
2022/11/23 18:18:27;;;;;;;13.75;6.28;;;;;;;;;;10572480;27;20026;-79
2022/11/23 18:23:28;;;;;;;18.10;5.80;;;;;;;;;;10580717;27;20023;-78
2022/11/23 18:28:29;;;;;;;15.50;6.68;;;;;;;;;;10602987;27;20030;-75
2022/11/23 18:33:29;;;;;;;11.60;5.78;;;;;;;;;;10604455;27;20518;-73
2022/11/23 18:38:29;;;;;;;14.18;6.95;;;;;;;;;;10590477;27;20586;-74
2022/11/23 18:43:30;;;;;;;15.00;6.47;;;;;;;;;;10570479;27;20031;-73
2022/11/23 18:48:30;;;;;;;13.13;6.57;;;;;;;;;;10589740;27;20260;-74
2022/11/23 18:53:33;;;;;;;16.02;6.30;;;;;;;;;;10598486;27;20038;-74
2022/11/23 18:58:33;;;;;;;20.80;8.57;;;;;;;;;;10604812;27;20046;-78
2022/11/23 19:03:34;;;;;;;14.77;6.63;;;;;;;;;;10600156;27;20402;-73
2022/11/23 19:08:41;;;;;;;16.60;5.77;;;;;;;;;;10614140;27;20118;-75
2022/11/23 19:13:41;;;;;;;10.70;4.63;;;;;;;;;;10591960;27;20265;-74
2022/11/23 19:18:42;;;;;;;15.55;6.32;;;;;;;;;;10617872;27;20038;-73
2022/11/23 19:23:42;;;;;;;9.57;5.00;;;;;;;;;;10580713;27;20023;-77
2022/11/23 19:28:43;;;;;;;24.85;8.88;;;;;;;;;;10594674;27;20265;-74
2022/11/23 19:33:44;;;;;;;14.20;6.05;;;;;;;;;;10585967;27;20027;-74
2022/11/23 19:38:45;;;;;;;13.75;5.50;;;;;;;;;;10590004;27;20040;-74
2022/11/23 19:43:45;;;;;;;12.43;5.25;;;;;;;;;;10579091;28;20020;-74
2022/11/23 19:48:46;;;;;;;10.87;4.30;;;;;;;;;;10601497;27;20019;-73
2022/11/23 19:53:48;;;;;;;10.88;4.93;;;;;;;;;;10597158;27;20425;-78
2022/11/23 19:58:52;;;;;;;16.73;4.25;;;;;;;;;;10567831;28;20046;-75
2022/11/23 20:03:53;;;;;;;14.02;4.72;;;;;;;;;;10728728;22;20493;-75
2022/11/23 20:08:54;;;;;;;14.30;4.70;;;;;;;;;;10517944;28;20036;-75
2022/11/23 20:13:55;;;;;;;10.07;4.80;;;;;;;;;;10513000;28;20026;-75
2022/11/23 20:18:57;;;;;;;16.17;5.55;;;;;;;;;;10517658;28;20026;-79
2022/11/23 20:24:05;;;;;;;13.55;4.97;;;;;;;;;;10487460;28;20032;-74
2022/11/23 20:29:06;;;;;;;11.38;5.88;;;;;;;;;;10499981;28;20013;-73
2022/11/23 20:34:06;;;;;;;11.95;5.65;;;;;;;;;;10531605;28;20082;-73
2022/11/23 20:39:09;;;;;;;13.55;5.57;;;;;;;;;;10504942;28;20020;-74
2022/11/23 20:44:12;;;;;;;11.38;6.40;;;;;;;;;;10500955;28;20479;-74
2022/11/23 20:49:12;;;;;;;13.30;5.97;;;;;;;;;;10489635;28;20019;-73
2022/11/23 20:54:14;;;;;;;16.00;5.97;;;;;;;;;;10485029;28;20024;-71
2022/11/23 20:59:14;;;;;;;14.48;6.97;;;;;;;;;;10513473;28;20278;-73
2022/11/23 21:04:16;;;;;;;11.23;5.83;;;;;;;;;;10502479;28;20419;-73
2022/11/23 21:09:16;;;;;;;11.30;5.95;;;;;;;;;;10529123;28;20278;-74
2022/11/23 21:14:19;;;;;;;12.33;5.73;;;;;;;;;;10516776;28;20495;-73
2022/11/23 21:19:24;;;;;;;18.83;6.82;;;;;;;;;;10507611;28;20127;-74
2022/11/23 21:24:24;;;;;;;15.77;6.97;;;;;;;;;;10512626;28;20024;-73
2022/11/23 21:29:25;;;;;;;11.70;5.67;;;;;;;;;;10523006;28;20347;-74
2022/11/23 21:34:27;;;;;;;14.35;6.38;;;;;;;;;;10530762;28;20047;-74
2022/11/23 21:39:30;;;;;;;18.75;7.30;;;;;;;;;;10521938;28;20016;-73
2022/11/23 21:44:31;;;;;;;15.43;8.18;;;;;;;;;;10518655;28;20024;-79
2022/11/23 21:49:31;;;;;;;17.77;6.57;;;;;;;;;;10508195;28;20514;-77
2022/11/23 21:54:32;;;;;;;11.00;6.00;;;;;;;;;;10515521;28;20028;-81
2022/11/23 21:59:32;;;;;;;18.63;6.45;;;;;;;;;;10507092;28;20503;-77
2022/11/23 22:04:32;;;;;;;10.27;5.47;;;;;;;;;;10497572;28;20424;-80
2022/11/23 22:09:33;;;;;;;11.63;6.15;;;;;;;;;;10516477;28;20523;-78
2022/11/23 22:14:34;;;;;;;11.82;5.32;;;;;;;;;;10508040;28;20040;-80
2022/11/23 22:19:35;;;;;;;7.65;4.55;;;;;;;;;;10512665;28;20024;-79
2022/11/23 22:24:36;;;;;;;9.82;4.30;;;;;;;;;;10490446;28;20522;-79
2022/11/23 22:29:36;;;;;;;15.27;5.13;;;;;;;;;;10524429;28;20052;-80
2022/11/23 22:34:38;;;;;;;12.02;5.85;;;;;;;;;;10511757;28;20083;-78
2022/11/23 22:39:38;;;;;;;19.63;6.38;;;;;;;;;;10521744;28;20032;-73
2022/11/23 22:44:38;;;;;;;7.75;4.57;;;;;;;;;;10516269;28;20036;-75
2022/11/23 22:49:38;;;;;;;11.93;5.43;;;;;;;;;;10509127;28;20485;-74
2022/11/23 22:54:39;;;;;;;12.27;5.90;;;;;;;;;;10533969;28;20059;-74
2022/11/23 22:59:39;;;;;;;13.45;5.70;;;;;;;;;;10527469;28;20036;-74
2022/11/23 23:04:39;;;;;;;11.30;6.25;;;;;;;;;;10547415;28;20052;-75
2022/11/23 23:09:39;;;;;;;15.25;6.10;;;;;;;;;;10534246;28;20028;-79
2022/11/23 23:14:40;;;;;;;14.68;6.60;;;;;;;;;;10512970;28;20036;-75
2022/11/23 23:19:41;;;;;;;10.68;5.72;;;;;;;;;;10513485;28;20028;-79
2022/11/23 23:24:41;;;;;;;13.07;6.25;;;;;;;;;;10554942;28;20020;-81
2022/11/23 23:29:41;;;;;;;9.23;5.53;;;;;;;;;;10554918;28;20050;-74
2022/11/23 23:34:41;;;;;;;17.67;5.38;;;;;;;;;;10554831;28;20027;-74
2022/11/23 23:39:42;;;;;;;10.02;5.55;;;;;;;;;;10554219;28;20042;-76
2022/11/23 23:44:42;;;;;;;11.15;5.70;;;;;;;;;;10554533;28;20407;-77
2022/11/23 23:49:42;;;;;;;12.00;5.53;;;;;;;;;;10567462;28;20046;-75
2022/11/23 23:54:42;;;;;;;11.75;5.28;;;;;;;;;;10597409;28;20327;-74
2022/11/23 23:59:43;;;;;;;16.25;5.18;;;;;;;;;;10578188;28;20066;-75
